createdAt,value
2022-08-22T00:00:48.555Z,17.41
2022-08-22T00:02:05.619Z,17.50
2022-08-22T00:02:45.057Z,21.05
2022-08-22T00:02:45.629Z,20.37
2022-08-22T00:02:54.798Z,18.87
2022-08-22T00:02:55.668Z,16.49
2022-08-22T00:02:56.068Z,19.00
2022-08-22T00:02:57.486Z,18.23
2022-08-22T00:03:02.936Z,19.79
2022-08-22T00:03:11.356Z,16.93
2022-08-22T00:03:23.677Z,17.53
2022-08-22T00:04:34.554Z,17.58
2022-08-22T00:05:47.903Z,17.58
2022-08-22T00:06:57.180Z,17.58
2022-08-22T00:08:06.709Z,17.64
2022-08-22T00:09:23.507Z,17.67
2022-08-22T00:10:29.981Z,17.66
2022-08-22T00:11:40.135Z,17.59
2022-08-22T00:12:49.215Z,17.54
2022-08-22T00:14:01.852Z,17.45
2022-08-22T00:15:18.377Z,17.40
2022-08-22T00:16:38.598Z,17.42
2022-08-22T00:17:47.339Z,17.48
2022-08-22T00:19:03.104Z,17.55
2022-08-22T00:20:11.641Z,17.65
2022-08-22T00:21:21.899Z,17.69
2022-08-22T00:22:31.758Z,17.69
2022-08-22T00:23:42.543Z,17.84
2022-08-22T00:24:50.801Z,17.92
2022-08-22T00:25:58.793Z,17.91
2022-08-22T00:27:07.416Z,17.86
2022-08-22T00:28:17.491Z,17.96
2022-08-22T00:29:26.843Z,17.94
2022-08-22T00:30:37.925Z,17.98
2022-08-22T00:31:45.600Z,18.03
2022-08-22T00:32:50.430Z,18.04
2022-08-22T00:33:59.473Z,18.07
2022-08-22T00:35:04.446Z,18.10
2022-08-22T00:36:15.443Z,18.11
2022-08-22T00:37:24.406Z,18.11
2022-08-22T00:38:30.270Z,18.12
2022-08-22T00:39:38.949Z,18.13
2022-08-22T00:40:56.161Z,18.13
2022-08-22T00:42:29.523Z,18.13
2022-08-22T00:44:09.600Z,18.11
2022-08-22T00:45:33.378Z,18.03
2022-08-22T00:46:56.235Z,18.01
2022-08-22T00:48:12.369Z,17.98
2022-08-22T00:49:33.819Z,17.92
2022-08-22T00:51:09.690Z,17.88
2022-08-22T00:52:41.522Z,17.84
2022-08-22T00:53:49.025Z,17.80
2022-08-22T00:55:14.948Z,17.77
2022-08-22T00:56:55.449Z,17.75
2022-08-22T00:58:19.149Z,17.73
2022-08-22T00:59:37.730Z,17.75
2022-08-22T01:00:44.324Z,17.76
2022-08-22T01:01:54.207Z,17.79
2022-08-22T01:03:26.579Z,17.80
2022-08-22T01:05:00.546Z,17.80
2022-08-22T01:06:20.600Z,17.76
2022-08-22T01:07:40.282Z,17.73
2022-08-22T01:08:58.580Z,17.66
2022-08-22T01:10:20.098Z,17.66
2022-08-22T01:11:40.877Z,17.65
2022-08-22T01:12:52.945Z,17.63
2022-08-22T01:14:12.282Z,17.59
2022-08-22T01:15:17.410Z,17.59
2022-08-22T01:16:36.959Z,17.60
2022-08-22T01:18:13.040Z,17.59
2022-08-22T01:19:40.977Z,17.59
2022-08-22T01:21:25.647Z,17.55
2022-08-22T01:22:54.948Z,17.43
2022-08-22T01:24:37.758Z,17.48
2022-08-22T01:26:13.705Z,17.42
2022-08-22T01:27:55.100Z,17.27
2022-08-22T01:29:42.465Z,17.12
2022-08-22T01:31:05.077Z,17.18
2022-08-22T01:32:45.005Z,17.18
2022-08-22T01:34:33.706Z,17.08
2022-08-22T01:36:35.373Z,16.96
2022-08-22T01:38:12.205Z,16.80
2022-08-22T01:39:38.175Z,16.64
2022-08-22T01:41:12.037Z,16.89
2022-08-22T01:42:46.691Z,17.01
2022-08-22T01:44:07.605Z,17.08
2022-08-22T01:45:35.922Z,17.13
2022-08-22T01:46:50.097Z,17.18
2022-08-22T01:47:55.415Z,17.20
2022-08-22T01:49:11.112Z,17.22
2022-08-22T01:50:21.708Z,17.21
2022-08-22T01:51:28.920Z,17.19
2022-08-22T01:52:36.959Z,16.89
2022-08-22T01:53:43.617Z,16.67
2022-08-22T01:54:53.145Z,16.62
2022-08-22T01:56:03.155Z,16.53
2022-08-22T01:57:08.393Z,16.43
2022-08-22T01:58:17.955Z,16.42
2022-08-22T01:59:33.781Z,16.46
2022-08-22T02:00:59.642Z,16.53
2022-08-22T02:02:14.055Z,16.56
2022-08-22T02:03:23.289Z,16.55
2022-08-22T02:04:36.653Z,16.47
2022-08-22T02:05:46.687Z,16.40
2022-08-22T02:06:59.572Z,16.40
2022-08-22T02:08:05.966Z,16.30
2022-08-22T02:09:20.258Z,16.27
2022-08-22T02:10:40.154Z,16.21
2022-08-22T02:11:50.419Z,16.23
2022-08-22T02:13:01.838Z,16.31
2022-08-22T02:14:07.150Z,16.21
2022-08-22T02:15:18.177Z,16.20
2022-08-22T02:16:26.368Z,16.20
2022-08-22T02:17:31.497Z,16.19
2022-08-22T02:18:45.789Z,16.37
2022-08-22T02:20:01.115Z,16.28
2022-08-22T02:21:08.789Z,16.23
2022-08-22T02:22:25.589Z,16.11
2022-08-22T02:23:35.487Z,16.00
2022-08-22T02:24:47.628Z,15.91
2022-08-22T02:25:55.281Z,15.86
2022-08-22T02:27:10.226Z,15.86
2022-08-22T02:28:19.695Z,15.89
2022-08-22T02:29:29.262Z,15.97
2022-08-22T02:30:47.243Z,15.90
2022-08-22T02:31:56.318Z,15.72
2022-08-22T02:33:03.958Z,15.83
2022-08-22T02:34:24.234Z,15.72
2022-08-22T02:35:35.070Z,15.71
2022-08-22T02:36:47.128Z,15.76
2022-08-22T02:37:58.008Z,15.78
2022-08-22T02:39:07.442Z,15.92
2022-08-22T02:40:16.904Z,16.03
2022-08-22T02:41:35.977Z,16.10
2022-08-22T02:42:43.457Z,16.00
2022-08-22T02:43:50.877Z,15.98
2022-08-22T02:45:11.941Z,15.89
2022-08-22T02:46:22.102Z,15.85
2022-08-22T02:47:30.881Z,15.94
2022-08-22T02:48:39.509Z,15.95
2022-08-22T02:49:51.705Z,15.88
2022-08-22T02:50:58.998Z,15.81
2022-08-22T02:52:07.139Z,15.86
2022-08-22T02:53:14.286Z,15.84
2022-08-22T02:54:25.668Z,15.89
2022-08-22T02:55:35.052Z,15.90
2022-08-22T02:56:41.024Z,15.86
2022-08-22T02:57:52.459Z,15.75
2022-08-22T02:58:59.237Z,15.69
2022-08-22T03:00:31.584Z,15.61
2022-08-22T03:01:40.894Z,15.65
2022-08-22T03:02:59.834Z,15.70
2022-08-22T03:04:23.344Z,15.75
2022-08-22T03:05:28.129Z,15.69
2022-08-22T03:06:36.957Z,15.66
2022-08-22T03:07:43.796Z,15.65
2022-08-22T03:09:21.998Z,15.67
2022-08-22T03:10:27.786Z,15.72
2022-08-22T03:11:35.038Z,15.71
2022-08-22T03:12:43.556Z,15.69
2022-08-22T03:13:53.704Z,15.71
2022-08-22T03:15:03.018Z,15.67
2022-08-22T03:16:10.307Z,15.63
2022-08-22T03:17:18.911Z,15.75
2022-08-22T03:18:25.702Z,15.86
2022-08-22T03:19:32.124Z,15.92
2022-08-22T03:20:46.641Z,16.01
2022-08-22T03:21:56.905Z,15.94
2022-08-22T03:23:05.497Z,15.88
2022-08-22T03:24:12.545Z,15.86
2022-08-22T03:25:23.315Z,15.86
2022-08-22T03:26:28.336Z,15.84
2022-08-22T03:27:39.411Z,15.80
2022-08-22T03:28:59.349Z,15.88
2022-08-22T03:30:06.114Z,15.92
2022-08-22T03:31:13.986Z,15.91
2022-08-22T03:32:18.453Z,15.92
2022-08-22T03:33:22.519Z,15.93
2022-08-22T03:34:25.594Z,15.93
2022-08-22T03:35:35.035Z,15.98
2022-08-22T03:36:36.551Z,15.95
2022-08-22T03:37:42.169Z,16.00
2022-08-22T03:39:02.433Z,16.07
2022-08-22T03:40:31.796Z,16.00
2022-08-22T03:42:00.390Z,16.03
2022-08-22T03:43:31.823Z,16.06
2022-08-22T03:45:03.450Z,16.24
2022-08-22T03:46:40.174Z,16.30
2022-08-22T03:48:16.233Z,16.34
2022-08-22T03:49:59.214Z,16.24
2022-08-22T03:51:28.780Z,16.14
2022-08-22T03:52:51.742Z,16.24
2022-08-22T03:54:32.918Z,16.28
2022-08-22T03:56:00.958Z,16.29
2022-08-22T03:57:30.443Z,16.20
2022-08-22T03:58:57.237Z,16.16
2022-08-22T04:00:23.763Z,16.18
2022-08-22T04:01:46.625Z,16.34
2022-08-22T04:03:28.775Z,16.40
2022-08-22T04:05:12.878Z,16.34
2022-08-22T04:06:43.126Z,16.19
2022-08-22T04:08:29.142Z,16.12
2022-08-22T04:10:07.473Z,16.04
2022-08-22T04:11:38.780Z,16.03
2022-08-22T04:12:55.803Z,15.98
2022-08-22T04:14:17.559Z,15.92
2022-08-22T04:15:35.938Z,15.92
2022-08-22T04:16:54.701Z,15.87
2022-08-22T04:18:23.952Z,15.85
2022-08-22T04:19:59.721Z,15.78
2022-08-22T04:21:28.270Z,15.65
2022-08-22T04:23:02.052Z,15.23
2022-08-22T04:24:33.405Z,13.75
2022-08-22T04:25:39.109Z,14.05
2022-08-22T04:26:47.924Z,14.34
2022-08-22T04:27:54.584Z,14.55
2022-08-22T04:29:02.957Z,14.32
2022-08-22T04:30:10.790Z,14.18
2022-08-22T04:31:14.392Z,14.16
2022-08-22T04:32:21.768Z,14.10
2022-08-22T04:33:27.781Z,14.01
2022-08-22T04:34:37.361Z,13.87
2022-08-22T04:35:42.840Z,13.57
2022-08-22T04:36:48.718Z,13.49
2022-08-22T04:37:56.316Z,13.47
2022-08-22T04:39:03.071Z,13.33
2022-08-22T04:40:13.051Z,13.28
2022-08-22T04:41:20.411Z,13.29
2022-08-22T04:42:33.318Z,13.18
2022-08-22T04:43:39.997Z,13.13
2022-08-22T04:44:47.394Z,13.19
2022-08-22T04:45:56.062Z,13.07
2022-08-22T04:47:02.220Z,13.12
2022-08-22T04:48:09.074Z,13.00
2022-08-22T04:49:16.891Z,13.08
2022-08-22T04:50:22.881Z,13.26
2022-08-22T04:51:30.377Z,13.10
2022-08-22T04:52:52.639Z,13.11
2022-08-22T04:54:29.087Z,13.38
2022-08-22T04:55:42.463Z,13.35
2022-08-22T04:57:08.126Z,13.33
2022-08-22T04:58:35.770Z,13.24
2022-08-22T04:59:37.337Z,13.28
2022-08-22T05:00:42.430Z,13.38
2022-08-22T05:01:47.578Z,13.42
2022-08-22T05:02:54.922Z,13.44
2022-08-22T05:03:59.424Z,13.53
2022-08-22T05:05:04.811Z,13.66
2022-08-22T05:06:18.435Z,13.83
2022-08-22T05:07:23.502Z,13.90
2022-08-22T05:08:29.335Z,13.96
2022-08-22T05:09:34.797Z,13.91
2022-08-22T05:10:40.836Z,13.99
2022-08-22T05:11:43.278Z,13.97
2022-08-22T05:12:54.106Z,14.11
2022-08-22T05:14:00.904Z,14.02
2022-08-22T05:15:09.687Z,13.89
2022-08-22T05:16:15.894Z,13.89
2022-08-22T05:17:23.836Z,13.96
2022-08-22T05:18:29.525Z,13.99
2022-08-22T05:19:35.614Z,13.95
2022-08-22T05:20:42.177Z,14.05
2022-08-22T05:21:45.661Z,14.16
2022-08-22T05:22:51.364Z,14.11
2022-08-22T05:23:57.177Z,14.11
2022-08-22T05:25:05.444Z,14.07
2022-08-22T05:26:08.108Z,14.16
2022-08-22T05:27:13.956Z,14.24
2022-08-22T05:28:25.713Z,14.24
2022-08-22T05:29:32.054Z,14.24
2022-08-22T05:30:35.368Z,14.15
2022-08-22T05:31:43.208Z,14.08
2022-08-22T05:32:50.475Z,14.00
2022-08-22T05:33:56.247Z,13.97
2022-08-22T05:35:01.041Z,13.93
2022-08-22T05:36:08.178Z,13.94
2022-08-22T05:37:15.197Z,13.95
2022-08-22T05:38:22.490Z,13.87
2022-08-22T05:39:25.545Z,13.87
2022-08-22T05:40:31.545Z,13.88
2022-08-22T05:41:37.042Z,13.99
2022-08-22T05:42:38.548Z,13.85
2022-08-22T05:43:42.040Z,13.83
2022-08-22T05:44:44.929Z,13.90
2022-08-22T05:45:47.600Z,13.95
2022-08-22T05:46:54.726Z,14.04
2022-08-22T05:48:03.104Z,14.00
2022-08-22T05:49:14.061Z,14.08
2022-08-22T05:50:19.788Z,14.18
2022-08-22T05:51:25.831Z,14.32
2022-08-22T05:52:59.401Z,14.37
2022-08-22T05:54:11.466Z,14.53
2022-08-22T05:55:23.349Z,14.58
2022-08-22T05:56:34.183Z,14.55
2022-08-22T05:57:39.637Z,14.53
2022-08-22T05:58:51.482Z,14.68
2022-08-22T06:00:01.103Z,14.57
2022-08-22T06:01:13.287Z,14.54
2022-08-22T06:02:21.411Z,14.50
2022-08-22T06:03:30.300Z,14.60
2022-08-22T06:04:37.044Z,14.57
2022-08-22T06:05:41.759Z,14.59
2022-08-22T06:06:52.215Z,14.54
2022-08-22T06:08:00.462Z,14.58
2022-08-22T06:09:07.719Z,14.62
2022-08-22T06:10:21.962Z,14.58
2022-08-22T06:11:33.907Z,14.57
2022-08-22T06:12:39.189Z,14.68
2022-08-22T06:13:50.095Z,14.89
2022-08-22T06:15:02.453Z,14.66
2022-08-22T06:16:17.098Z,14.80
2022-08-22T06:17:22.407Z,14.85
2022-08-22T06:18:26.819Z,15.02
2022-08-22T06:19:28.498Z,15.00
2022-08-22T06:20:37.506Z,15.00
2022-08-22T06:21:39.768Z,14.98
2022-08-22T06:22:47.859Z,15.06
2022-08-22T06:23:53.002Z,14.95
2022-08-22T06:24:58.760Z,15.02
2022-08-22T06:26:01.932Z,15.00
2022-08-22T06:27:08.598Z,15.08
2022-08-22T06:28:25.128Z,14.72
2022-08-22T06:29:35.218Z,14.92
2022-08-22T06:30:39.643Z,15.16
2022-08-22T06:31:46.949Z,15.00
2022-08-22T06:33:00.124Z,14.98
2022-08-22T06:34:06.292Z,15.19
2022-08-22T06:35:15.337Z,15.38
2022-08-22T06:36:21.583Z,15.15
2022-08-22T06:37:30.723Z,15.29
2022-08-22T06:38:39.955Z,15.29
2022-08-22T06:39:45.094Z,15.37
2022-08-22T06:40:46.995Z,15.49
2022-08-22T06:41:52.392Z,15.45
2022-08-22T06:42:55.468Z,15.42
2022-08-22T06:43:59.013Z,15.54
2022-08-22T06:45:05.685Z,15.55
2022-08-22T06:46:09.614Z,15.62
2022-08-22T06:47:18.087Z,15.83
2022-08-22T06:48:22.595Z,15.80
2022-08-22T06:49:25.492Z,15.99
2022-08-22T06:50:32.758Z,15.88
2022-08-22T06:51:36.692Z,15.77
2022-08-22T06:52:53.383Z,15.75
2022-08-22T06:54:01.105Z,15.76
2022-08-22T06:55:06.754Z,15.92
2022-08-22T06:56:08.745Z,16.07
2022-08-22T06:57:25.816Z,16.11
2022-08-22T06:58:30.988Z,16.27
2022-08-22T06:59:38.320Z,16.32
2022-08-22T07:00:42.336Z,16.33
2022-08-22T07:01:51.582Z,16.47
2022-08-22T07:02:57.236Z,16.57
2022-08-22T07:04:02.946Z,16.81
2022-08-22T07:05:06.518Z,16.93
2022-08-22T07:06:14.325Z,16.78
2022-08-22T07:07:19.581Z,16.74
2022-08-22T07:08:23.664Z,16.87
2022-08-22T07:09:28.887Z,16.76
2022-08-22T07:10:30.481Z,16.82
2022-08-22T07:11:36.698Z,16.92
2022-08-22T07:12:38.403Z,17.13
2022-08-22T07:13:47.307Z,17.05
2022-08-22T07:14:52.078Z,17.58
2022-08-22T07:15:56.288Z,17.28
2022-08-22T07:17:01.500Z,17.37
2022-08-22T07:18:07.662Z,17.32
2022-08-22T07:19:10.240Z,17.31
2022-08-22T07:20:20.786Z,18.00
2022-08-22T07:21:25.838Z,17.86
2022-08-22T07:22:30.515Z,17.91
2022-08-22T07:23:34.842Z,17.86
2022-08-22T07:24:36.715Z,18.23
2022-08-22T07:25:50.762Z,18.43
2022-08-22T07:27:13.503Z,18.64
2022-08-22T07:28:34.730Z,18.77
2022-08-22T07:29:50.066Z,18.34
2022-08-22T07:30:55.914Z,18.66
2022-08-22T07:32:07.005Z,18.90
2022-08-22T07:33:27.114Z,18.91
2022-08-22T07:34:40.384Z,18.92
2022-08-22T07:35:53.528Z,18.33
2022-08-22T07:37:00.141Z,18.92
2022-08-22T07:38:09.367Z,19.19
2022-08-22T07:39:25.418Z,18.98
2022-08-22T07:40:33.938Z,18.56
2022-08-22T07:41:48.924Z,18.59
2022-08-22T07:42:56.137Z,18.46
2022-08-22T07:44:10.017Z,18.81
2022-08-22T07:45:18.403Z,19.31
2022-08-22T07:46:28.372Z,18.97
2022-08-22T07:47:49.196Z,18.86
2022-08-22T07:49:08.498Z,18.66
2022-08-22T07:50:16.936Z,18.85
2022-08-22T07:51:25.565Z,18.84
2022-08-22T07:52:33.437Z,19.21
2022-08-22T07:53:41.072Z,19.16
2022-08-22T07:54:48.220Z,19.27
2022-08-22T07:55:50.084Z,19.53
2022-08-22T07:56:57.026Z,19.17
2022-08-22T07:58:01.439Z,18.81
2022-08-22T07:59:13.005Z,18.84
2022-08-22T08:00:18.885Z,19.05
2022-08-22T08:01:23.366Z,19.27
2022-08-22T08:02:25.906Z,18.87
2022-08-22T08:03:30.844Z,18.63
2022-08-22T08:04:40.013Z,18.91
2022-08-22T08:05:44.469Z,19.08
2022-08-22T08:06:48.052Z,18.80
2022-08-22T08:07:53.854Z,19.18
2022-08-22T08:08:56.441Z,18.93
2022-08-22T08:10:04.355Z,19.06
2022-08-22T08:11:08.690Z,18.98
2022-08-22T08:12:12.371Z,19.00
2022-08-22T08:13:20.861Z,19.49
2022-08-22T08:14:25.513Z,19.19
2022-08-22T08:15:27.674Z,19.45
2022-08-22T08:16:39.855Z,20.04
2022-08-22T08:17:42.956Z,19.88
2022-08-22T08:18:47.970Z,20.24
2022-08-22T08:19:50.809Z,20.42
2022-08-22T08:20:56.967Z,20.58
2022-08-22T08:21:59.259Z,20.96
2022-08-22T08:23:02.910Z,21.07
2022-08-22T08:24:08.565Z,21.25
2022-08-22T08:25:13.932Z,21.06
2022-08-22T08:26:17.973Z,21.04
2022-08-22T08:27:23.410Z,21.08
2022-08-22T08:28:25.459Z,20.77
2022-08-22T08:29:27.231Z,20.53
2022-08-22T08:30:40.376Z,20.54
2022-08-22T08:31:44.793Z,20.69
2022-08-22T08:32:51.111Z,20.88
2022-08-22T08:34:04.514Z,20.61
2022-08-22T08:35:19.975Z,21.17
2022-08-22T08:36:33.309Z,21.09
2022-08-22T08:37:42.226Z,21.29
2022-08-22T08:38:48.635Z,20.86
2022-08-22T08:39:53.559Z,21.36
2022-08-22T08:41:22.508Z,21.41
2022-08-22T08:42:55.101Z,21.57
2022-08-22T08:44:05.854Z,21.62
2022-08-22T08:45:22.081Z,21.68
2022-08-22T08:46:55.683Z,21.73
2022-08-22T08:48:14.792Z,21.33
2022-08-22T08:49:42.985Z,21.84
2022-08-22T08:51:02.042Z,22.03
2022-08-22T08:52:24.639Z,22.39
2022-08-22T08:53:50.984Z,22.41
2022-08-22T08:55:01.378Z,22.84
2022-08-22T08:56:12.246Z,22.59
2022-08-22T08:57:24.689Z,22.97
2022-08-22T08:58:33.961Z,22.15
2022-08-22T08:59:48.112Z,22.66
2022-08-22T09:00:55.174Z,22.54
2022-08-22T09:02:34.934Z,22.80
2022-08-22T09:04:24.350Z,22.82
2022-08-22T09:06:14.301Z,22.59
2022-08-22T09:07:41.193Z,23.01
2022-08-22T09:09:10.928Z,23.39
2022-08-22T09:12:15.551Z,23.07
2022-08-22T09:13:42.762Z,23.01
2022-08-22T09:15:11.901Z,22.24
2022-08-22T09:16:46.252Z,23.02
2022-08-22T09:18:20.029Z,23.51
2022-08-22T09:19:49.714Z,22.89
2022-08-22T09:21:30.424Z,22.69
2022-08-22T09:23:12.280Z,22.53
2022-08-22T09:24:50.235Z,22.54
2022-08-22T09:25:56.413Z,22.66
2022-08-22T09:27:01.112Z,22.95
2022-08-22T09:28:19.490Z,22.79
2022-08-22T09:29:51.675Z,22.62
2022-08-22T09:31:32.897Z,22.51
2022-08-22T09:32:51.631Z,22.32
2022-08-22T09:33:58.454Z,22.82
2022-08-22T09:35:06.613Z,22.21
2022-08-22T09:36:19.055Z,22.39
2022-08-22T09:37:31.697Z,22.29
2022-08-22T09:38:53.845Z,22.49
2022-08-22T09:40:01.323Z,22.77
2022-08-22T09:40:15.394Z,22.44
2022-08-22T09:41:14.619Z,22.67
2022-08-22T09:42:29.789Z,22.80
2022-08-22T09:43:38.112Z,22.44
2022-08-22T09:44:59.370Z,22.43
2022-08-22T09:46:11.171Z,23.12
2022-08-22T09:47:24.476Z,23.30
2022-08-22T09:48:38.602Z,22.85
2022-08-22T09:49:51.551Z,22.51
2022-08-22T09:51:13.779Z,22.43
2022-08-22T09:52:36.071Z,22.27
2022-08-22T09:53:57.834Z,22.10
2022-08-22T09:55:08.118Z,22.37
2022-08-22T09:56:19.655Z,22.39
2022-08-22T09:57:33.701Z,22.08
2022-08-22T09:58:41.934Z,22.10
2022-08-22T10:00:22.143Z,22.45
2022-08-22T10:01:32.986Z,22.75
2022-08-22T10:02:43.357Z,22.50
2022-08-22T10:04:33.003Z,22.55
2022-08-22T10:05:44.878Z,22.61
2022-08-22T10:06:55.631Z,22.64
2022-08-22T10:08:11.236Z,22.97
2022-08-22T10:09:31.526Z,22.66
2022-08-22T10:10:50.228Z,22.47
2022-08-22T10:11:59.929Z,22.27
2022-08-22T10:13:10.723Z,23.00
2022-08-22T10:14:22.359Z,23.07
2022-08-22T10:15:35.419Z,23.01
2022-08-22T10:16:56.891Z,23.13
2022-08-22T10:18:10.319Z,22.96
2022-08-22T10:19:18.361Z,23.28
2022-08-22T10:20:29.924Z,23.06
2022-08-22T10:21:40.245Z,23.41
2022-08-22T10:22:51.706Z,23.34
2022-08-22T10:23:58.925Z,23.29
2022-08-22T10:25:29.886Z,23.58
2022-08-22T10:26:40.086Z,23.25
2022-08-22T10:27:50.739Z,22.91
2022-08-22T10:28:56.273Z,23.30
2022-08-22T10:30:06.665Z,23.58
2022-08-22T10:31:42.805Z,23.67
2022-08-22T10:33:04.038Z,23.63
2022-08-22T10:34:12.158Z,23.14
2022-08-22T10:35:20.929Z,23.28
2022-08-22T10:36:31.067Z,23.57
2022-08-22T10:37:36.927Z,23.83
2022-08-22T10:38:47.179Z,23.84
2022-08-22T10:40:00.357Z,22.74
2022-08-22T10:41:13.720Z,22.60
2022-08-22T10:42:27.994Z,22.12
2022-08-22T10:43:38.883Z,22.18
2022-08-22T10:44:52.522Z,22.16
2022-08-22T10:46:02.661Z,22.95
2022-08-22T10:47:08.192Z,23.21
2022-08-22T10:48:22.375Z,23.29
2022-08-22T10:49:29.419Z,23.01
2022-08-22T10:50:35.724Z,23.31
2022-08-22T10:51:45.101Z,23.00
2022-08-22T10:52:49.625Z,22.79
2022-08-22T10:54:09.422Z,22.67
2022-08-22T10:55:15.480Z,22.35
2022-08-22T10:56:24.787Z,23.01
2022-08-22T10:57:53.050Z,23.19
2022-08-22T10:59:02.959Z,23.43
2022-08-22T11:00:13.195Z,23.25
2022-08-22T11:01:41.499Z,23.04
2022-08-22T11:02:53.144Z,22.89
2022-08-22T11:04:09.855Z,22.61
2022-08-22T11:05:34.151Z,23.08
2022-08-22T11:06:44.827Z,23.35
2022-08-22T11:07:50.254Z,23.41
2022-08-22T11:09:07.644Z,23.52
2022-08-22T11:10:19.843Z,23.60
2022-08-22T11:11:35.904Z,24.00
2022-08-22T11:12:53.445Z,23.71
2022-08-22T11:14:19.174Z,23.94
2022-08-22T11:15:43.713Z,23.92
2022-08-22T11:16:56.417Z,24.16
2022-08-22T11:18:15.614Z,23.85
2022-08-22T11:19:32.107Z,23.91
2022-08-22T11:20:48.751Z,24.06
2022-08-22T11:22:00.414Z,24.05
2022-08-22T11:23:19.669Z,23.76
2022-08-22T11:25:05.826Z,23.46
2022-08-22T11:26:29.285Z,23.86
2022-08-22T11:27:46.487Z,24.12
2022-08-22T11:29:13.237Z,23.82
2022-08-22T11:30:20.320Z,23.75
2022-08-22T11:31:36.781Z,24.37
2022-08-22T11:32:46.540Z,24.18
2022-08-22T11:33:55.343Z,24.03
2022-08-22T11:35:00.482Z,23.97
2022-08-22T11:36:11.903Z,23.82
2022-08-22T11:37:24.083Z,23.61
2022-08-22T11:38:53.592Z,24.13
2022-08-22T11:40:05.548Z,24.16
2022-08-22T11:41:14.198Z,23.51
2022-08-22T11:42:23.331Z,23.89
2022-08-22T11:43:39.978Z,23.54
2022-08-22T11:44:50.717Z,23.56
2022-08-22T11:45:57.950Z,23.85
2022-08-22T11:47:07.212Z,23.85
2022-08-22T11:48:19.915Z,23.46
2022-08-22T11:49:33.849Z,23.29
2022-08-22T11:50:39.405Z,22.85
2022-08-22T11:52:10.787Z,23.58
2022-08-22T11:53:24.168Z,23.89
2022-08-22T11:54:34.942Z,23.97
2022-08-22T11:55:38.414Z,24.10
2022-08-22T11:56:46.363Z,23.95
2022-08-22T11:57:50.030Z,23.85
2022-08-22T11:58:59.348Z,23.55
2022-08-22T12:00:20.984Z,23.69
2022-08-22T12:01:34.209Z,23.53
2022-08-22T12:02:49.017Z,23.63
2022-08-22T12:04:09.834Z,23.54
2022-08-22T12:05:24.267Z,23.86
2022-08-22T12:06:57.205Z,23.85
2022-08-22T12:08:08.999Z,23.96
2022-08-22T12:09:23.083Z,24.21
2022-08-22T12:10:30.165Z,24.06
2022-08-22T12:11:38.907Z,24.22
2022-08-22T12:12:54.064Z,23.94
2022-08-22T12:14:06.017Z,24.08
2022-08-22T12:15:16.480Z,24.06
2022-08-22T12:16:27.759Z,23.94
2022-08-22T12:17:55.877Z,23.53
2022-08-22T12:19:16.573Z,23.86
2022-08-22T12:20:40.566Z,23.74
2022-08-22T12:22:30.547Z,23.72
2022-08-22T12:23:54.893Z,23.49
2022-08-22T12:25:08.488Z,23.32
2022-08-22T12:26:17.462Z,23.33
2022-08-22T12:27:40.420Z,23.63
2022-08-22T12:29:03.237Z,23.79
2022-08-22T12:30:13.923Z,23.94
2022-08-22T12:31:25.561Z,24.10
2022-08-22T12:32:46.497Z,24.01
2022-08-22T12:34:16.474Z,23.82
2022-08-22T12:35:30.362Z,23.29
2022-08-22T12:36:53.642Z,23.76
2022-08-22T12:38:28.360Z,23.99
2022-08-22T12:39:55.071Z,23.94
2022-08-22T12:41:48.206Z,23.52
2022-08-22T12:43:06.608Z,23.89
2022-08-22T12:44:39.172Z,23.41
2022-08-22T12:45:57.623Z,23.46
2022-08-22T12:47:29.643Z,23.69
2022-08-22T12:48:51.488Z,23.96
2022-08-22T12:50:10.923Z,23.66
2022-08-22T12:51:29.505Z,23.69
2022-08-22T12:52:47.599Z,23.67
2022-08-22T12:54:33.498Z,23.66
2022-08-22T12:55:50.360Z,23.23
2022-08-22T12:57:02.737Z,22.80
2022-08-22T12:58:08.889Z,23.29
2022-08-22T12:59:26.115Z,23.29
2022-08-22T13:00:33.676Z,23.07
2022-08-22T13:01:39.222Z,23.08
2022-08-22T13:02:44.970Z,23.22
2022-08-22T13:03:50.110Z,23.38
2022-08-22T13:04:55.626Z,23.34
2022-08-22T13:06:00.405Z,23.17
2022-08-22T13:07:08.586Z,23.45
2022-08-22T13:08:17.343Z,23.46
2022-08-22T13:09:28.915Z,23.34
2022-08-22T13:10:42.463Z,23.67
2022-08-22T13:11:49.357Z,24.12
2022-08-22T13:12:55.624Z,24.21
2022-08-22T13:14:00.364Z,24.43
2022-08-22T13:15:12.807Z,24.54
2022-08-22T13:16:19.347Z,24.39
2022-08-22T13:17:24.270Z,24.11
2022-08-22T13:18:33.864Z,24.39
2022-08-22T13:19:52.537Z,24.64
2022-08-22T13:20:56.876Z,24.78
2022-08-22T13:22:03.849Z,24.41
2022-08-22T13:23:12.383Z,24.47
2022-08-22T13:24:22.749Z,23.93
2022-08-22T13:25:59.041Z,23.92
2022-08-22T13:27:07.345Z,24.20
2022-08-22T13:28:12.243Z,24.29
2022-08-22T13:29:39.476Z,23.78
2022-08-22T13:30:41.742Z,23.12
2022-08-22T13:31:52.238Z,23.54
2022-08-22T13:33:04.281Z,23.31
2022-08-22T13:34:28.090Z,22.71
2022-08-22T13:35:33.751Z,23.21
2022-08-22T13:36:42.919Z,23.06
2022-08-22T13:37:58.536Z,22.38
2022-08-22T13:39:06.990Z,22.11
2022-08-22T13:40:13.867Z,21.85
2022-08-22T13:41:21.770Z,21.90
2022-08-22T13:42:30.891Z,22.03
2022-08-22T13:43:36.893Z,22.21
2022-08-22T13:44:43.164Z,22.20
2022-08-22T13:45:53.952Z,21.96
2022-08-22T13:47:14.506Z,22.25
2022-08-22T13:48:16.422Z,22.37
2022-08-22T13:49:30.567Z,22.71
2022-08-22T13:50:37.532Z,22.94
2022-08-22T13:52:14.448Z,23.08
2022-08-22T13:53:38.005Z,23.06
2022-08-22T13:54:52.493Z,23.19
2022-08-22T13:56:01.270Z,23.42
2022-08-22T13:57:11.180Z,23.53
2022-08-22T13:58:27.717Z,23.65
2022-08-22T13:59:51.081Z,23.79
2022-08-22T14:01:20.123Z,23.94
2022-08-22T14:02:43.191Z,24.03
2022-08-22T14:03:49.753Z,23.97
2022-08-22T14:04:54.555Z,23.49
2022-08-22T14:06:32.401Z,23.26
2022-08-22T14:07:29.646Z,22.90
2022-08-22T14:08:36.202Z,23.10
2022-08-22T14:09:49.154Z,23.49
2022-08-22T14:11:03.919Z,23.34
2022-08-22T14:12:12.604Z,22.95
2022-08-22T14:13:31.683Z,22.89
2022-08-22T14:14:36.269Z,22.79
2022-08-22T14:15:45.484Z,22.87
2022-08-22T14:16:51.853Z,22.76
2022-08-22T14:18:00.944Z,22.70
2022-08-22T14:19:08.261Z,22.98
2022-08-22T14:20:32.118Z,23.23
2022-08-22T14:21:41.333Z,23.36
2022-08-22T14:22:57.276Z,23.33
2022-08-22T14:24:05.816Z,23.58
2022-08-22T14:25:16.943Z,23.55
2022-08-22T14:26:33.162Z,23.47
2022-08-22T14:27:56.061Z,23.51
2022-08-22T14:29:01.535Z,23.67
2022-08-22T14:30:07.719Z,23.58
2022-08-22T14:31:13.723Z,23.48
2022-08-22T14:32:41.780Z,23.70
2022-08-22T14:33:48.858Z,23.61
2022-08-22T14:34:58.931Z,23.18
2022-08-22T14:36:10.431Z,23.09
2022-08-22T14:37:19.266Z,23.19
2022-08-22T14:38:27.299Z,23.56
2022-08-22T14:39:36.954Z,23.73
2022-08-22T14:40:46.974Z,23.43
2022-08-22T14:41:57.091Z,23.46
2022-08-22T14:43:07.437Z,23.35
2022-08-22T14:44:17.103Z,23.51
2022-08-22T14:45:22.036Z,23.77
2022-08-22T14:46:30.150Z,23.55
2022-08-22T14:47:54.999Z,23.12
2022-08-22T14:49:24.775Z,23.38
2022-08-22T14:50:40.557Z,23.42
2022-08-22T14:51:50.856Z,23.37
2022-08-22T14:53:05.094Z,23.71
2022-08-22T14:54:21.048Z,23.28
2022-08-22T14:55:24.878Z,23.40
2022-08-22T14:56:29.527Z,23.48
2022-08-22T14:57:35.672Z,23.75
2022-08-22T14:58:48.353Z,23.75
2022-08-22T14:59:52.099Z,23.81
2022-08-22T15:00:55.527Z,23.64
2022-08-22T15:02:01.257Z,23.71
2022-08-22T15:03:08.131Z,23.80
2022-08-22T15:04:20.823Z,23.59
2022-08-22T15:05:22.764Z,23.63
2022-08-22T15:06:33.338Z,23.63
2022-08-22T15:07:37.485Z,23.38
2022-08-22T15:08:50.450Z,23.50
2022-08-22T15:09:54.853Z,23.55
2022-08-22T15:11:09.116Z,23.38
2022-08-22T15:12:23.677Z,23.59
2022-08-22T15:13:25.597Z,23.65
2022-08-22T15:14:51.895Z,23.66
2022-08-22T15:15:56.013Z,23.41
2022-08-22T15:17:05.560Z,23.24
2022-08-22T15:18:19.298Z,23.23
2022-08-22T15:19:27.232Z,23.22
2022-08-22T15:20:36.310Z,23.34
2022-08-22T15:21:41.560Z,23.41
2022-08-22T15:22:57.746Z,23.54
2022-08-22T15:24:03.710Z,23.74
2022-08-22T15:25:11.713Z,23.83
2022-08-22T15:26:26.679Z,23.20
2022-08-22T15:27:31.882Z,23.31
2022-08-22T15:28:52.463Z,23.41
2022-08-22T15:29:57.373Z,23.02
2022-08-22T15:31:03.480Z,22.77
2022-08-22T15:32:05.701Z,22.66
2022-08-22T15:33:10.420Z,22.67
2022-08-22T15:34:19.381Z,22.67
2022-08-22T15:35:31.049Z,22.79
2022-08-22T15:36:32.729Z,23.08
2022-08-22T15:37:54.169Z,22.96